Hlavní strana
METAR-TAF:

METAR-TAF

Letiště :

Linec, Rakousko

zeměpisná šířka: 48-14N, zeměpisná délka: 014-11E, výška: 298 m

Aktuální stav počasí

Zpráva byla vytvořena před 23 minutami, v 16:50 UTC
Východoseverovýchodní vítr 16 kt
Teplota 4°C
Vlhkost vzduchu 56%
Tlak 1030 hPa
Viditelnost 10 km a více

METAR: LOWL 171650Z AUTO 07016KT 9999 NSC 04/M04 Q1030 NOSIG

Čas: 18:13 (17:13 UTC)

Předpověď počasí

Zpráva byla vytvořena před 5 hodinami a 58 minutami, v 11:15 UTC
Předpověď platná od 17 v 12 UTC do 18 v 12 UTC
Východní vítr 12 kt
Viditelnost 10 km a více
Žádná oblačnost pod 1500 m, nevyskytují se cumulonimby.
Dočasný
od 17 v 12 UTC do 17 v 17 UTC
Východní vítr 15 kt s nárazy do 26 kt
Pravděpodobnost 30%
od 18 v 04 UTC do 18 v 08 UTC
Východní vítr 6 kt
Viditelnost: 4000 m
kouřmo

TAF: LOWL 171115Z 1712/1812 08012KT CAVOK TX06/1713Z TNM00/1803Z TEMPO 1712/1717 10015G26KT PROB30 1804/1808 09006KT 4000 BR NSC

Stav a předpovědi počasí z více než 4 000 letišť (zprávy METAR a TAF).

Červené a žluté tečky na mapě představují dostupné meteorologické stanice.

Když kurzor umístíte na tečku, zobrazí se název stanice.

Pak kliknutím zobrazíte stav a předpověď počasí.

Chcete-li změnit mapu, kliknutím na zelené tlačítko se znaménkem +mapu přiblížíte, kliknutím na zelené tlačítko se znaménkem – mapu oddálíte a kliknutím na zelené šipky přejdete na sousední mapy.


METAR-TAF: